Time;durP1;ratioP1;P1;durP2;ratioP2;P2;SDS_P1;SDS_P2;PMS_P1;PMS_P2;Temp;Humidity;BMP_temperature;BMP_pressure;BME280_temperature;BME280_humidity;BME280_pressure;Samples;Min_cycle;Max_cycle;Signal;HPM_P1;HPM_P2
2021/08/22 00:01:26;;;;;;;5.40;4.13;;;24.90;59.70;;;;;;5012786;28;20026;-58
2021/08/22 00:03:52;;;;;;;4.60;3.90;;;24.90;59.80;;;;;;5012439;28;20037;-59
2021/08/22 00:06:17;;;;;;;5.68;4.30;;;24.90;59.80;;;;;;5012166;28;20069;-59
2021/08/22 00:08:43;;;;;;;7.72;4.57;;;24.90;59.80;;;;;;5011962;28;20062;-58
2021/08/22 00:11:09;;;;;;;5.80;4.20;;;25.00;60.00;;;;;;4992642;28;20030;-59
2021/08/22 00:13:35;;;;;;;5.47;3.70;;;24.90;59.80;;;;;;4992400;28;20116;-59
2021/08/22 00:16:01;;;;;;;5.32;3.72;;;24.90;60.00;;;;;;4991994;28;20038;-59
2021/08/22 00:18:28;;;;;;;5.00;3.85;;;24.90;60.00;;;;;;4992693;28;20076;-58
2021/08/22 00:20:53;;;;;;;5.55;4.50;;;24.90;60.00;;;;;;4992382;28;20464;-58
2021/08/22 00:23:19;;;;;;;6.00;3.65;;;24.90;60.00;;;;;;4996207;28;20030;-58
2021/08/22 00:25:45;;;;;;;5.15;4.10;;;24.90;60.20;;;;;;5001329;28;20034;-58
2021/08/22 00:28:10;;;;;;;5.63;4.20;;;24.90;60.50;;;;;;4999430;28;20680;-59
2021/08/22 00:30:37;;;;;;;5.63;4.10;;;24.80;61.10;;;;;;5005369;28;20057;-58
2021/08/22 00:33:03;;;;;;;6.50;3.88;;;24.70;61.40;;;;;;4997889;28;20035;-58
2021/08/22 00:35:28;;;;;;;5.25;3.88;;;24.60;61.70;;;;;;4996304;28;20034;-58
2021/08/22 00:37:54;;;;;;;5.43;3.50;;;24.60;61.40;;;;;;4995922;28;20515;-58
2021/08/22 00:40:20;;;;;;;6.18;3.97;;;24.70;61.20;;;;;;4995366;28;20030;-58
2021/08/22 00:42:46;;;;;;;5.45;4.38;;;24.70;61.20;;;;;;4995811;28;20046;-58
2021/08/22 00:45:12;;;;;;;6.78;4.53;;;24.80;61.10;;;;;;4995349;28;20027;-58
2021/08/22 00:47:42;;;;;;;6.25;3.85;;;24.80;61.00;;;;;;4995707;28;20468;-54
2021/08/22 00:50:12;;;;;;;4.50;3.50;;;24.80;61.00;;;;;;4995717;28;20109;-59
2021/08/22 00:52:37;;;;;;;5.03;3.38;;;24.80;60.90;;;;;;4996077;28;20108;-58
2021/08/22 00:55:05;;;;;;;6.90;3.70;;;24.80;60.90;;;;;;4995272;28;20576;-59
2021/08/22 00:57:32;;;;;;;5.53;3.83;;;24.80;60.80;;;;;;4995593;28;20460;-58
2021/08/22 01:00:00;;;;;;;6.13;3.65;;;24.80;60.90;;;;;;4996107;28;20045;-58
2021/08/22 01:02:30;;;;;;;5.45;3.95;;;24.80;60.80;;;;;;4995656;28;20030;-58
2021/08/22 01:05:36;;;;;;;4.68;3.15;;;24.80;60.80;;;;;;4995609;28;20072;-59
2021/08/22 01:08:09;;;;;;;4.82;3.20;;;24.90;60.80;;;;;;4994859;28;20472;-59
2021/08/22 01:10:38;;;;;;;4.75;3.08;;;24.80;60.70;;;;;;5009939;28;20034;-59
2021/08/22 01:13:10;;;;;;;5.82;3.33;;;24.90;60.80;;;;;;5014692;28;20380;-58
2021/08/22 01:15:39;;;;;;;4.88;3.50;;;24.90;60.80;;;;;;5015101;28;20030;-58
2021/08/22 01:18:10;;;;;;;3.72;3.20;;;24.90;60.70;;;;;;5014183;28;20449;-59
2021/08/22 01:20:36;;;;;;;4.47;3.28;;;24.90;60.70;;;;;;5014857;28;20022;-59
2021/08/22 01:23:03;;;;;;;5.25;3.70;;;24.90;60.70;;;;;;5014408;28;20030;-58
2021/08/22 01:25:31;;;;;;;4.90;3.60;;;24.90;60.70;;;;;;5015196;28;20084;-58
2021/08/22 01:27:57;;;;;;;4.72;3.15;;;24.90;60.70;;;;;;5014958;28;20030;-59
2021/08/22 01:30:23;;;;;;;5.13;2.88;;;24.90;60.70;;;;;;5014158;28;20109;-59
2021/08/22 01:32:51;;;;;;;6.00;3.28;;;24.80;60.70;;;;;;5014852;28;20479;-58
2021/08/22 01:35:19;;;;;;;4.07;2.95;;;24.80;60.80;;;;;;5013772;28;20056;-58
2021/08/22 01:37:47;;;;;;;6.22;3.08;;;24.80;60.80;;;;;;5014740;28;20030;-59
2021/08/22 01:40:15;;;;;;;3.85;3.13;;;24.90;60.90;;;;;;5012896;28;20058;-58
2021/08/22 01:42:42;;;;;;;4.70;3.00;;;24.90;60.80;;;;;;5014772;28;20089;-58
2021/08/22 01:45:10;;;;;;;4.22;2.90;;;24.80;60.90;;;;;;5013926;28;20120;-58
2021/08/22 01:47:39;;;;;;;4.35;3.00;;;24.90;60.90;;;;;;5014161;28;20502;-58
2021/08/22 01:50:06;;;;;;;3.97;2.42;;;24.90;60.90;;;;;;5013847;28;20075;-58
2021/08/22 01:52:35;;;;;;;4.32;2.97;;;24.90;60.90;;;;;;5014421;28;20034;-58
2021/08/22 01:55:02;;;;;;;4.57;2.50;;;24.80;60.90;;;;;;5013981;28;20025;-59
2021/08/22 01:57:28;;;;;;;5.40;3.28;;;24.90;60.90;;;;;;5014422;28;20029;-59
2021/08/22 01:59:54;;;;;;;4.35;2.67;;;24.80;60.90;;;;;;5014186;28;20026;-58
2021/08/22 02:02:19;;;;;;;4.97;2.88;;;24.80;60.90;;;;;;5013329;28;20033;-59
2021/08/22 02:04:55;;;;;;;3.38;2.95;;;24.80;60.90;;;;;;5014032;28;20030;-58
2021/08/22 02:07:23;;;;;;;4.93;2.60;;;24.80;60.90;;;;;;5013627;28;20120;-59
2021/08/22 02:10:10;;;;;;;3.42;2.53;;;24.80;60.90;;;;;;5005657;28;20107;-58
2021/08/22 02:12:39;;;;;;;3.90;2.75;;;24.80;60.90;;;;;;4994492;28;20095;-58
2021/08/22 02:15:33;;;;;;;3.33;2.55;;;24.80;61.50;;;;;;4993789;28;20121;-58
2021/08/22 02:18:11;;;;;;;3.58;2.75;;;24.90;60.90;;;;;;4993927;28;20069;-58
2021/08/22 02:20:38;;;;;;;4.15;2.58;;;24.80;60.90;;;;;;4994294;28;20018;-58
2021/08/22 02:23:04;;;;;;;2.97;2.42;;;24.80;60.90;;;;;;4993364;28;20548;-58
2021/08/22 02:25:30;;;;;;;4.25;2.80;;;24.80;60.90;;;;;;4994149;28;20030;-58
2021/08/22 02:27:58;;;;;;;6.28;3.65;;;24.80;60.90;;;;;;4994232;28;20026;-59
2021/08/22 02:30:24;;;;;;;4.18;2.90;;;24.80;60.90;;;;;;4993503;28;20077;-58
2021/08/22 02:32:51;;;;;;;3.63;2.30;;;24.80;60.90;;;;;;4994021;28;20034;-58
2021/08/22 02:35:16;;;;;;;3.65;2.50;;;24.80;60.90;;;;;;4993090;28;20535;-58
2021/08/22 02:37:42;;;;;;;3.28;2.80;;;24.80;60.90;;;;;;4994059;28;20034;-58
2021/08/22 02:40:08;;;;;;;3.42;2.47;;;24.80;60.90;;;;;;4993283;28;20037;-58
2021/08/22 02:42:34;;;;;;;3.45;2.55;;;24.80;61.00;;;;;;4993608;28;20104;-58
2021/08/22 02:44:59;;;;;;;3.90;2.63;;;24.80;60.90;;;;;;4993780;28;20038;-59
2021/08/22 02:47:25;;;;;;;3.03;2.33;;;24.80;60.90;;;;;;4993154;28;20058;-59
2021/08/22 02:49:50;;;;;;;3.67;2.40;;;24.80;60.90;;;;;;4993680;28;20027;-58
2021/08/22 02:52:16;;;;;;;6.38;2.60;;;24.80;60.90;;;;;;4992913;28;20034;-58
2021/08/22 02:54:42;;;;;;;4.82;3.00;;;24.80;60.90;;;;;;4993769;28;20126;-59
2021/08/22 02:57:07;;;;;;;3.80;2.22;;;24.80;60.90;;;;;;4992998;28;20092;-58
2021/08/22 02:59:33;;;;;;;3.42;2.40;;;24.80;60.90;;;;;;4993611;28;20037;-58
2021/08/22 03:01:59;;;;;;;3.53;2.50;;;24.80;60.90;;;;;;4993558;28;20492;-58
2021/08/22 03:04:24;;;;;;;3.17;2.67;;;24.80;60.90;;;;;;4992845;28;20045;-58
2021/08/22 03:06:50;;;;;;;3.15;2.55;;;24.80;60.90;;;;;;4993810;28;20474;-58
2021/08/22 03:09:15;;;;;;;3.50;2.67;;;24.80;60.90;;;;;;4996455;28;20048;-58
2021/08/22 03:11:41;;;;;;;4.72;2.55;;;24.80;60.80;;;;;;5012502;28;20037;-58
2021/08/22 03:14:07;;;;;;;4.20;2.45;;;24.80;60.80;;;;;;5012533;28;20057;-58
2021/08/22 03:16:32;;;;;;;3.55;2.78;;;24.80;60.80;;;;;;5012985;28;20029;-58
2021/08/22 03:18:58;;;;;;;3.10;2.17;;;24.80;60.80;;;;;;5012895;28;20105;-58
2021/08/22 03:21:24;;;;;;;4.60;2.58;;;24.80;60.80;;;;;;5012022;28;20194;-58
2021/08/22 03:23:49;;;;;;;2.95;2.10;;;24.80;60.80;;;;;;5012893;28;20030;-58
2021/08/22 03:26:15;;;;;;;5.53;2.25;;;24.80;60.80;;;;;;5012156;28;20467;-58
2021/08/22 03:28:42;;;;;;;2.92;2.50;;;24.80;60.80;;;;;;5011670;28;20426;-58
2021/08/22 03:31:07;;;;;;;3.45;2.17;;;24.80;60.80;;;;;;5012044;28;20034;-58
2021/08/22 03:33:33;;;;;;;3.13;1.90;;;24.80;60.90;;;;;;5012775;28;20122;-58
2021/08/22 03:35:58;;;;;;;2.80;2.15;;;24.80;60.90;;;;;;5012678;28;20038;-58
2021/08/22 03:38:24;;;;;;;4.10;2.65;;;24.80;60.90;;;;;;5012156;28;20309;-57
2021/08/22 03:40:50;;;;;;;3.47;2.35;;;24.80;60.90;;;;;;5012740;28;20152;-58
2021/08/22 03:43:15;;;;;;;2.53;2.15;;;24.80;60.90;;;;;;5010815;28;20467;-58
2021/08/22 03:45:41;;;;;;;2.50;1.70;;;24.80;60.90;;;;;;5012572;28;20038;-58
2021/08/22 03:48:07;;;;;;;4.03;2.40;;;24.80;60.90;;;;;;5011681;28;20050;-58
2021/08/22 03:50:32;;;;;;;2.85;2.20;;;24.80;60.90;;;;;;5012612;28;20029;-58
2021/08/22 03:52:58;;;;;;;3.47;2.30;;;24.80;61.00;;;;;;5012560;28;20022;-58
2021/08/22 03:55:24;;;;;;;3.17;2.25;;;24.80;61.00;;;;;;5011674;28;20029;-58
2021/08/22 03:57:49;;;;;;;2.65;2.20;;;24.80;60.90;;;;;;5012414;28;20080;-58
2021/08/22 04:00:15;;;;;;;2.72;2.35;;;24.80;61.00;;;;;;5011662;28;20026;-58
2021/08/22 04:02:41;;;;;;;2.67;1.90;;;24.80;61.00;;;;;;5012433;28;20379;-58
2021/08/22 04:05:09;;;;;;;4.88;2.15;;;24.80;61.00;;;;;;5014420;28;20116;-58
2021/08/22 04:07:36;;;;;;;3.50;2.15;;;24.80;61.00;;;;;;5016593;28;20028;-58
2021/08/22 04:10:03;;;;;;;2.72;1.85;;;24.80;61.00;;;;;;5006333;28;20084;-58
2021/08/22 04:12:29;;;;;;;2.97;2.20;;;24.80;61.00;;;;;;4996001;28;20377;-58
2021/08/22 04:14:55;;;;;;;2.92;2.08;;;24.80;61.00;;;;;;4997027;28;20110;-58
2021/08/22 04:17:20;;;;;;;3.17;2.08;;;24.80;61.00;;;;;;4995734;28;20523;-58
2021/08/22 04:19:46;;;;;;;3.75;2.10;;;24.80;60.90;;;;;;4996630;28;20023;-58
2021/08/22 04:22:12;;;;;;;2.65;2.25;;;24.80;60.90;;;;;;4995735;28;20022;-58
2021/08/22 04:24:38;;;;;;;3.03;2.00;;;24.80;60.90;;;;;;4996536;28;20038;-59
2021/08/22 04:27:05;;;;;;;2.75;2.00;;;24.80;60.90;;;;;;4996157;28;20495;-58
2021/08/22 04:29:37;;;;;;;2.63;1.90;;;24.80;60.90;;;;;;4995814;28;20157;-58
2021/08/22 04:32:03;;;;;;;3.92;2.10;;;24.80;60.90;;;;;;4996249;28;20037;-58
2021/08/22 04:34:29;;;;;;;3.25;2.28;;;24.80;60.90;;;;;;4995717;28;20038;-58
2021/08/22 04:36:55;;;;;;;2.50;1.77;;;24.80;60.90;;;;;;4996229;28;20027;-58
2021/08/22 04:39:20;;;;;;;3.17;2.17;;;24.80;61.00;;;;;;4995714;28;20427;-58
2021/08/22 04:41:46;;;;;;;2.83;2.08;;;24.80;61.60;;;;;;4996058;28;20415;-58
2021/08/22 04:44:13;;;;;;;3.38;2.20;;;24.80;60.90;;;;;;4995389;28;20038;-59
2021/08/22 04:46:39;;;;;;;4.70;2.30;;;24.80;61.00;;;;;;4996041;28;20439;-58
2021/08/22 04:49:05;;;;;;;2.63;2.00;;;24.80;61.00;;;;;;4996043;28;20031;-59
2021/08/22 04:51:30;;;;;;;2.33;2.00;;;24.80;61.00;;;;;;4995610;28;20118;-58
2021/08/22 04:53:56;;;;;;;3.80;2.10;;;24.80;61.10;;;;;;4995930;28;20065;-58
2021/08/22 04:56:23;;;;;;;3.47;2.47;;;24.80;61.20;;;;;;4995364;28;20026;-58
2021/08/22 04:58:49;;;;;;;4.35;2.25;;;24.80;61.20;;;;;;4996126;28;20113;-58
2021/08/22 05:01:15;;;;;;;2.70;2.10;;;24.80;61.20;;;;;;4995223;28;20112;-58
2021/08/22 05:03:41;;;;;;;2.72;2.10;;;24.80;61.30;;;;;;4995744;28;20034;-59
2021/08/22 05:06:08;;;;;;;2.83;1.92;;;24.80;61.30;;;;;;4995639;28;20030;-58
2021/08/22 05:08:33;;;;;;;2.55;1.90;;;24.70;61.20;;;;;;4995659;28;20026;-58
2021/08/22 05:10:59;;;;;;;2.45;1.85;;;24.80;61.30;;;;;;5013441;28;20084;-58
2021/08/22 05:13:25;;;;;;;1.80;1.65;;;24.70;61.20;;;;;;5014580;28;20041;-59
2021/08/22 05:15:51;;;;;;;2.53;1.90;;;24.70;61.20;;;;;;5014963;28;20117;-58
2021/08/22 05:18:23;;;;;;;1.90;1.67;;;24.80;61.40;;;;;;5014093;28;20521;-58
2021/08/22 05:20:49;;;;;;;4.03;1.90;;;24.80;61.40;;;;;;5007441;28;20030;-58
2021/08/22 05:23:15;;;;;;;3.10;2.08;;;24.80;61.40;;;;;;5004818;28;20053;-58
2021/08/22 05:25:41;;;;;;;3.53;2.25;;;24.70;61.40;;;;;;5011580;28;20045;-58
2021/08/22 05:28:07;;;;;;;2.70;1.92;;;24.70;61.40;;;;;;5014856;28;20455;-58
2021/08/22 05:30:32;;;;;;;2.85;2.20;;;24.70;61.30;;;;;;5004064;28;20460;-58
2021/08/22 05:32:58;;;;;;;2.50;1.52;;;24.80;61.30;;;;;;5000594;28;20109;-58
2021/08/22 05:35:24;;;;;;;2.67;1.88;;;24.70;61.30;;;;;;5004594;28;20378;-58
2021/08/22 05:37:49;;;;;;;3.50;2.00;;;24.80;61.30;;;;;;5002505;28;20029;-58
2021/08/22 05:40:15;;;;;;;2.90;2.08;;;24.80;61.30;;;;;;4999612;28;20030;-58
2021/08/22 05:42:41;;;;;;;3.75;2.35;;;24.70;61.20;;;;;;4996433;28;20063;-58
2021/08/22 05:45:07;;;;;;;2.88;2.13;;;24.70;61.30;;;;;;5003603;28;20038;-58
2021/08/22 05:47:33;;;;;;;2.70;1.95;;;24.80;61.30;;;;;;5005249;28;20031;-58
2021/08/22 05:49:58;;;;;;;2.35;2.00;;;24.80;61.40;;;;;;5004269;28;20106;-58
2021/08/22 05:52:24;;;;;;;2.42;2.00;;;24.80;61.30;;;;;;5003000;28;20022;-58
2021/08/22 05:54:50;;;;;;;2.90;1.98;;;24.70;61.30;;;;;;5002425;28;20034;-58
2021/08/22 05:57:15;;;;;;;2.67;1.92;;;24.70;61.30;;;;;;5001045;28;20022;-57
2021/08/22 05:59:41;;;;;;;3.45;2.70;;;24.80;61.40;;;;;;5001762;28;20030;-57
2021/08/22 06:02:06;;;;;;;7.07;2.78;;;24.30;63.50;;;;;;5001993;28;20030;-56
2021/08/22 06:04:32;;;;;;;3.95;2.63;;;23.80;66.60;;;;;;5001929;28;20034;-57
2021/08/22 06:06:58;;;;;;;4.10;2.90;;;23.50;67.50;;;;;;4998127;28;20034;-57
2021/08/22 06:09:24;;;;;;;5.38;2.92;;;23.30;68.50;;;;;;5000058;28;20058;-57
2021/08/22 06:11:50;;;;;;;3.78;2.58;;;23.30;69.10;;;;;;5002803;28;20089;-55
2021/08/22 06:14:16;;;;;;;3.83;2.67;;;23.30;69.50;;;;;;5003993;28;20025;-57
2021/08/22 06:16:41;;;;;;;4.13;2.85;;;23.20;68.70;;;;;;5003815;28;20108;-58
2021/08/22 06:19:07;;;;;;;4.07;2.67;;;23.20;68.90;;;;;;5002798;28;20113;-57
2021/08/22 06:21:33;;;;;;;3.50;2.83;;;23.20;68.10;;;;;;5004136;28;20057;-57
2021/08/22 06:23:59;;;;;;;6.72;3.03;;;23.20;69.60;;;;;;5011383;28;20033;-57
2021/08/22 06:26:28;;;;;;;8.60;4.15;;;23.20;68.50;;;;;;5012269;28;20404;-59
2021/08/22 06:28:53;;;;;;;3.70;3.05;;;23.20;68.60;;;;;;5012154;28;20022;-58
2021/08/22 06:31:19;;;;;;;4.80;2.83;;;23.10;68.60;;;;;;5003140;28;20030;-58
2021/08/22 06:33:45;;;;;;;5.15;3.10;;;23.20;69.70;;;;;;5002668;28;20037;-58
2021/08/22 06:36:12;;;;;;;4.55;3.25;;;23.20;70.00;;;;;;5002347;28;20563;-58
2021/08/22 06:38:38;;;;;;;4.45;2.97;;;23.20;70.60;;;;;;5002104;28;20031;-58
2021/08/22 06:41:04;;;;;;;6.85;3.33;;;23.20;70.70;;;;;;5002259;28;20124;-57
2021/08/22 06:43:29;;;;;;;5.00;3.20;;;23.30;69.90;;;;;;5001482;28;20042;-57
2021/08/22 06:45:55;;;;;;;4.05;3.03;;;23.30;69.20;;;;;;5003461;28;20107;-57
2021/08/22 06:48:20;;;;;;;6.97;3.75;;;23.30;68.40;;;;;;4998464;28;20025;-57
2021/08/22 06:50:48;;;;;;;4.70;3.60;;;23.30;68.50;;;;;;5004058;28;20378;-58
2021/08/22 06:53:13;;;;;;;4.65;3.20;;;23.30;68.10;;;;;;5002246;28;20412;-58
2021/08/22 06:55:41;;;;;;;4.55;3.03;;;23.30;68.30;;;;;;5001669;28;20073;-57
2021/08/22 06:58:07;;;;;;;7.72;3.20;;;23.30;69.40;;;;;;5004036;28;20028;-58
2021/08/22 07:00:33;;;;;;;5.90;3.20;;;23.30;68.80;;;;;;5002626;28;20109;-55
2021/08/22 07:02:58;;;;;;;3.95;3.00;;;23.30;69.70;;;;;;5002412;28;20022;-57
2021/08/22 07:05:24;;;;;;;3.70;2.67;;;23.30;69.90;;;;;;5003000;28;20030;-53
2021/08/22 07:07:50;;;;;;;6.47;3.20;;;23.30;69.60;;;;;;5003737;28;20049;-55
2021/08/22 07:10:15;;;;;;;4.82;2.60;;;23.30;68.70;;;;;;5000894;28;20099;-55
2021/08/22 07:12:41;;;;;;;4.13;3.13;;;23.30;69.30;;;;;;5003275;28;20029;-53
2021/08/22 07:15:07;;;;;;;3.67;2.78;;;23.30;68.40;;;;;;5003658;28;20021;-56
2021/08/22 07:17:32;;;;;;;3.42;2.97;;;23.20;69.50;;;;;;5001351;28;20223;-55
2021/08/22 07:19:58;;;;;;;5.32;3.63;;;23.20;70.30;;;;;;5002356;28;20069;-57
2021/08/22 07:22:24;;;;;;;8.60;3.85;;;23.20;69.10;;;;;;5003069;28;20388;-57
2021/08/22 07:24:49;;;;;;;7.07;3.30;;;23.30;68.40;;;;;;5001479;28;20472;-57
2021/08/22 07:27:15;;;;;;;4.03;3.00;;;23.40;68.80;;;;;;4994109;28;20084;-58
2021/08/22 07:29:41;;;;;;;4.43;3.17;;;23.30;68.20;;;;;;4993059;28;20045;-58
2021/08/22 07:32:07;;;;;;;3.58;2.88;;;23.30;68.10;;;;;;4996683;28;20391;-57
2021/08/22 07:34:33;;;;;;;3.88;3.17;;;23.40;67.60;;;;;;4992500;28;20023;-53
2021/08/22 07:36:58;;;;;;;4.82;3.05;;;23.40;67.60;;;;;;4992986;28;20037;-54
2021/08/22 07:39:24;;;;;;;5.35;3.10;;;23.40;67.50;;;;;;4992011;28;20022;-50
2021/08/22 07:41:49;;;;;;;3.85;2.78;;;23.50;67.10;;;;;;4993363;28;20433;-47
2021/08/22 07:44:15;;;;;;;5.68;3.10;;;23.30;67.00;;;;;;4992992;28;20038;-51
2021/08/22 07:46:41;;;;;;;3.70;2.80;;;23.30;67.10;;;;;;4992773;28;20030;-57
2021/08/22 07:49:06;;;;;;;5.25;2.95;;;23.20;67.60;;;;;;4992609;28;20113;-48
2021/08/22 07:51:32;;;;;;;3.90;3.08;;;23.20;67.10;;;;;;4991183;28;20035;-49
2021/08/22 07:53:58;;;;;;;6.38;3.30;;;23.20;67.80;;;;;;4992928;28;20084;-50
2021/08/22 07:56:23;;;;;;;8.45;2.80;;;23.20;67.20;;;;;;4992129;28;20031;-48
2021/08/22 07:58:49;;;;;;;3.40;3.00;;;23.30;67.00;;;;;;4993213;28;20468;-50
2021/08/22 08:01:14;;;;;;;4.82;2.88;;;23.40;67.40;;;;;;4992045;28;20106;-57
2021/08/22 08:03:40;;;;;;;4.28;3.08;;;23.50;66.40;;;;;;4992815;28;20026;-49
2021/08/22 08:06:06;;;;;;;3.75;2.92;;;23.30;66.40;;;;;;4992867;28;20033;-50
2021/08/22 08:08:31;;;;;;;3.60;2.78;;;23.40;66.90;;;;;;4991986;28;20080;-50
2021/08/22 08:10:57;;;;;;;4.60;3.10;;;23.40;66.90;;;;;;5009675;28;20088;-47
2021/08/22 08:13:23;;;;;;;3.60;2.92;;;23.40;66.60;;;;;;5012037;28;20120;-49
2021/08/22 08:15:48;;;;;;;5.82;3.65;;;23.40;66.90;;;;;;5012111;28;20379;-48
2021/08/22 08:18:14;;;;;;;5.85;3.42;;;23.60;66.90;;;;;;5012389;28;20030;-49
2021/08/22 08:20:39;;;;;;;4.95;3.08;;;23.40;66.80;;;;;;5011962;28;20129;-47
2021/08/22 08:23:05;;;;;;;7.45;3.45;;;23.40;67.10;;;;;;5011993;28;20463;-52
2021/08/22 08:25:31;;;;;;;6.15;3.47;;;23.40;67.00;;;;;;5011432;28;20033;-50
2021/08/22 08:27:57;;;;;;;5.10;3.08;;;23.40;67.30;;;;;;5012297;28;20037;-50
2021/08/22 08:30:22;;;;;;;4.60;3.38;;;23.40;67.20;;;;;;5011274;28;20026;-48
2021/08/22 08:32:48;;;;;;;10.93;3.40;;;23.40;67.10;;;;;;5012554;28;20076;-49
2021/08/22 08:35:13;;;;;;;4.35;2.85;;;23.40;67.20;;;;;;5011900;28;20076;-50
2021/08/22 08:37:40;;;;;;;4.82;3.45;;;23.60;67.50;;;;;;5011449;28;20084;-48
2021/08/22 08:40:12;;;;;;;3.78;3.03;;;23.60;67.10;;;;;;5009067;28;20388;-49
2021/08/22 08:42:44;;;;;;;5.13;3.10;;;23.60;67.10;;;;;;4994583;28;20054;-47
2021/08/22 08:45:43;;;;;;;6.03;3.17;;;23.80;67.00;;;;;;4992469;28;20109;-48
2021/08/22 08:48:09;;;;;;;3.17;2.63;;;24.00;66.40;;;;;;4990327;28;20081;-47
2021/08/22 08:50:46;;;;;;;3.97;3.00;;;24.10;66.30;;;;;;4993733;28;20133;-47
2021/08/22 08:53:15;;;;;;;4.32;3.22;;;23.80;66.20;;;;;;4995900;28;20464;-51
2021/08/22 08:55:57;;;;;;;6.90;3.58;;;23.80;66.50;;;;;;4995314;28;20105;-48
2021/08/22 08:58:23;;;;;;;5.95;3.20;;;23.90;66.40;;;;;;4995462;28;20395;-48
2021/08/22 09:00:49;;;;;;;7.10;3.40;;;24.00;66.30;;;;;;4995718;28;20022;-50
2021/08/22 09:03:16;;;;;;;4.05;3.05;;;23.90;66.00;;;;;;4995850;28;20428;-49
2021/08/22 09:06:06;;;;;;;4.20;2.92;;;23.90;66.20;;;;;;4995646;28;20042;-51
2021/08/22 09:08:50;;;;;;;4.20;3.08;;;23.80;66.10;;;;;;4995221;28;20035;-51
2021/08/22 09:11:19;;;;;;;5.10;3.13;;;23.90;66.20;;;;;;4995754;28;20479;-52
2021/08/22 09:14:22;;;;;;;4.88;3.50;;;23.80;66.30;;;;;;4984832;28;20065;-46
2021/08/22 09:17:25;;;;;;;4.57;3.20;;;23.90;66.20;;;;;;5015624;28;20029;-47
2021/08/22 09:20:15;;;;;;;4.78;3.38;;;24.20;65.40;;;;;;5014631;28;20041;-46
2021/08/22 09:23:18;;;;;;;4.50;3.05;;;24.30;64.80;;;;;;5014016;28;20037;-48
2021/08/22 09:26:20;;;;;;;4.95;2.92;;;24.30;64.60;;;;;;5014824;28;20034;-49
2021/08/22 09:29:23;;;;;;;4.60;2.83;;;24.40;64.50;;;;;;5014781;28;20025;-47
2021/08/22 09:32:26;;;;;;;5.53;3.30;;;24.50;64.40;;;;;;5014606;28;20030;-47
2021/08/22 09:35:30;;;;;;;5.85;3.58;;;24.50;64.30;;;;;;5014451;28;20034;-46
2021/08/22 09:38:34;;;;;;;4.85;3.17;;;24.50;64.30;;;;;;5014319;28;20467;-47
2021/08/22 09:41:18;;;;;;;4.80;3.50;;;24.50;64.30;;;;;;5013914;28;20498;-50
2021/08/22 09:44:15;;;;;;;4.70;3.15;;;24.50;64.20;;;;;;5014092;28;20037;-47
2021/08/22 09:47:17;;;;;;;4.28;3.22;;;24.50;64.30;;;;;;5013488;28;20534;-46
2021/08/22 09:50:07;;;;;;;3.80;3.25;;;24.50;64.20;;;;;;5013660;28;20538;-46
2021/08/22 09:52:37;;;;;;;3.75;2.88;;;24.50;64.10;;;;;;5013779;28;20026;-47
2021/08/22 09:55:37;;;;;;;3.28;2.80;;;24.50;64.00;;;;;;5014337;28;20034;-47
2021/08/22 09:58:14;;;;;;;4.03;3.10;;;24.70;63.50;;;;;;5013984;28;20103;-47
2021/08/22 10:01:04;;;;;;;5.15;3.20;;;24.80;63.00;;;;;;5013353;28;20379;-47
2021/08/22 10:03:47;;;;;;;3.75;3.00;;;24.90;62.60;;;;;;5012948;28;20499;-46
2021/08/22 10:06:50;;;;;;;4.85;3.42;;;24.90;62.80;;;;;;5013912;28;20471;-47
2021/08/22 10:09:29;;;;;;;3.92;3.05;;;24.80;62.60;;;;;;5010424;28;20445;-49
2021/08/22 10:12:00;;;;;;;4.90;3.28;;;24.80;62.90;;;;;;4995283;28;20084;-47
2021/08/22 10:14:27;;;;;;;4.25;2.80;;;24.80;62.90;;;;;;5007835;28;20507;-48
2021/08/22 10:16:53;;;;;;;4.22;3.20;;;24.80;62.80;;;;;;5013296;28;20034;-48
2021/08/22 10:19:26;;;;;;;4.28;2.63;;;24.80;62.90;;;;;;5013431;28;20018;-48
2021/08/22 10:22:12;;;;;;;6.10;3.22;;;24.90;62.80;;;;;;5013655;28;20053;-47
2021/08/22 10:24:38;;;;;;;6.28;2.97;;;24.90;62.80;;;;;;5012114;28;20450;-45
2021/08/22 10:27:05;;;;;;;5.13;3.05;;;24.90;62.80;;;;;;5013813;28;20073;-50
2021/08/22 10:29:35;;;;;;;5.47;2.78;;;24.90;63.10;;;;;;5013030;28;20026;-51
2021/08/22 10:32:02;;;;;;;7.60;3.20;;;25.00;62.70;;;;;;5013584;28;20383;-49
2021/08/22 10:34:31;;;;;;;6.50;3.38;;;24.90;63.00;;;;;;5013124;28;20061;-49
2021/08/22 10:36:57;;;;;;;7.15;2.70;;;25.00;63.00;;;;;;5004434;28;20076;-51
2021/08/22 10:39:25;;;;;;;5.18;2.92;;;25.00;63.00;;;;;;4998737;28;20030;-52
2021/08/22 10:41:55;;;;;;;3.65;2.92;;;25.00;63.00;;;;;;4994666;28;20062;-51
2021/08/22 10:44:35;;;;;;;5.20;2.90;;;25.10;62.80;;;;;;4992776;28;20413;-57
2021/08/22 10:47:12;;;;;;;6.32;2.85;;;25.10;62.80;;;;;;4993356;28;20042;-57
2021/08/22 10:49:53;;;;;;;6.22;3.05;;;25.20;62.90;;;;;;4992812;28;20083;-57
2021/08/22 10:52:23;;;;;;;4.35;2.83;;;25.20;63.10;;;;;;4993671;28;20038;-57
2021/08/22 10:55:11;;;;;;;7.65;3.20;;;25.10;63.20;;;;;;4993661;28;20428;-57
2021/08/22 10:57:51;;;;;;;5.18;2.92;;;25.10;63.40;;;;;;4992912;28;20027;-54
2021/08/22 11:00:24;;;;;;;5.45;2.75;;;25.20;63.30;;;;;;4993406;28;20030;-56
2021/08/22 11:02:51;;;;;;;6.93;3.78;;;25.20;63.00;;;;;;4993379;28;20149;-56
2021/08/22 11:05:18;;;;;;;5.10;3.28;;;25.30;63.20;;;;;;4993374;28;20110;-58
2021/08/22 11:07:51;;;;;;;7.47;3.47;;;25.30;63.10;;;;;;5005216;28;20032;-56
2021/08/22 11:10:19;;;;;;;8.30;4.13;;;25.40;63.10;;;;;;5012872;28;20467;-57
2021/08/22 11:12:44;;;;;;;10.15;3.78;;;25.40;63.30;;;;;;5011883;28;20041;-57
2021/08/22 11:15:31;;;;;;;7.40;4.55;;;25.40;63.70;;;;;;5012652;28;20100;-56
2021/08/22 11:18:03;;;;;;;10.80;4.38;;;25.40;64.30;;;;;;5012703;28;20026;-57
2021/08/22 11:20:30;;;;;;;7.75;3.97;;;25.30;64.70;;;;;;5012229;28;20069;-56
2021/08/22 11:23:02;;;;;;;11.88;4.63;;;25.30;64.60;;;;;;5012912;28;20025;-56
2021/08/22 11:25:28;;;;;;;5.55;2.97;;;25.20;64.30;;;;;;5012333;28;20092;-57
2021/08/22 11:28:23;;;;;;;5.22;2.60;;;25.10;62.80;;;;;;5012692;28;20034;-56
2021/08/22 11:30:48;;;;;;;6.97;3.78;;;25.00;63.00;;;;;;5011861;28;20100;-56
2021/08/22 11:33:15;;;;;;;3.30;2.22;;;25.00;62.50;;;;;;5012467;28;20034;-56
2021/08/22 11:35:46;;;;;;;7.43;2.85;;;25.00;62.00;;;;;;5012234;28;20030;-55
2021/08/22 11:38:12;;;;;;;;;;;25.10;62.20;;;;;;5013066;28;20084;-56
2021/08/22 11:40:38;;;;;;;3.78;2.35;;;25.10;62.10;;;;;;5011846;28;20401;-58
2021/08/22 11:43:06;;;;;;;4.97;1.90;;;25.10;61.90;;;;;;5012676;28;20034;-58
2021/08/22 11:45:37;;;;;;;4.03;1.90;;;25.10;61.30;;;;;;5011955;28;20041;-58
2021/08/22 11:48:05;;;;;;;4.13;2.03;;;25.10;61.20;;;;;;5012601;28;20061;-57
2021/08/22 11:50:32;;;;;;;4.05;1.75;;;25.20;61.20;;;;;;5012287;28;20032;-58
2021/08/22 11:53:01;;;;;;;3.67;1.60;;;25.20;61.00;;;;;;5012617;28;20371;-58
2021/08/22 11:55:32;;;;;;;4.32;2.20;;;25.10;61.00;;;;;;5011786;28;20559;-58
2021/08/22 11:58:10;;;;;;;4.28;1.90;;;25.20;60.80;;;;;;5012552;28;20096;-58
2021/08/22 12:00:38;;;;;;;4.95;2.22;;;25.20;60.60;;;;;;5011497;28;20025;-58
2021/08/22 12:03:04;;;;;;;3.33;1.58;;;25.10;61.10;;;;;;5012415;28;20108;-59
2021/08/22 12:05:31;;;;;;;6.22;1.80;;;25.20;60.90;;;;;;5011861;28;20038;-57
2021/08/22 12:08:10;;;;;;;3.72;1.70;;;25.20;61.10;;;;;;5012386;28;20040;-58
2021/08/22 12:10:39;;;;;;;4.65;1.90;;;25.20;60.80;;;;;;4996980;28;20420;-59
2021/08/22 12:13:16;;;;;;;3.58;1.83;;;25.20;60.80;;;;;;4992824;28;20031;-59
2021/08/22 12:15:43;;;;;;;3.10;1.65;;;25.20;60.80;;;;;;4991798;28;20046;-58
2021/08/22 12:18:32;;;;;;;2.70;1.90;;;25.20;60.90;;;;;;4992558;28;20380;-58
2021/08/22 12:21:03;;;;;;;2.13;1.52;;;25.20;60.80;;;;;;4992873;28;20062;-58
2021/08/22 12:23:32;;;;;;;2.90;1.50;;;25.20;61.10;;;;;;4991739;28;20037;-58
2021/08/22 12:26:26;;;;;;;1.90;1.30;;;25.20;60.80;;;;;;4995255;28;20380;-57
2021/08/22 12:28:58;;;;;;;2.28;1.50;;;25.20;60.90;;;;;;4996323;28;20022;-58
2021/08/22 12:31:35;;;;;;;2.33;1.80;;;25.20;61.10;;;;;;4996076;28;20392;-58
2021/08/22 12:34:05;;;;;;;2.72;1.90;;;25.20;61.10;;;;;;4996282;28;20097;-56
2021/08/22 12:36:37;;;;;;;1.75;1.45;;;25.20;61.10;;;;;;4995491;28;20112;-58
2021/08/22 12:39:05;;;;;;;1.88;1.27;;;25.20;61.10;;;;;;4996289;28;20026;-59
2021/08/22 12:41:46;;;;;;;2.00;1.45;;;25.20;61.10;;;;;;5009425;28;20061;-58
2021/08/22 12:44:26;;;;;;;1.70;1.33;;;25.20;61.20;;;;;;5015391;28;20030;-58
2021/08/22 12:46:57;;;;;;;1.70;1.10;;;25.20;61.10;;;;;;5015709;28;20034;-57
2021/08/22 12:49:23;;;;;;;2.37;1.40;;;25.30;60.90;;;;;;5015708;28;20066;-58
2021/08/22 12:51:57;;;;;;;1.33;1.20;;;25.20;60.80;;;;;;5015139;28;20249;-59
2021/08/22 12:54:25;;;;;;;1.48;1.38;;;25.20;60.80;;;;;;5010760;28;20092;-58
2021/08/22 12:56:52;;;;;;;1.73;1.20;;;25.10;61.30;;;;;;5015354;28;20060;-58
2021/08/22 12:59:18;;;;;;;1.75;1.10;;;25.10;61.40;;;;;;5015592;28;20061;-58
2021/08/22 13:01:45;;;;;;;3.08;1.40;;;25.20;61.50;;;;;;5014889;28;20113;-59